Terminal Aerodrome Forecast
Issued by NWS Wilmington, OH

Current Version | Previous Version | Graphics & Text | Print | Product List | Glossary On
Versions: 1 2 3 4 5 6 7 8 9 10 11 12 13 14 15 16 17 18 19 20 21 22 23 24 25
000
FTUS41 KILN 172100 AAC
TAFCVG
TAF AMD
KCVG 172100Z 1721/1824 22011KT P6SM FEW250
     FM180000 22007KT P6SM FEW250
     FM181300 22008KT P6SM BKN180
     FM181800 22010KT P6SM BKN060 OVC100=

USA.gov is the U.S. government's official web portal to all federal, state and local government web resources and services.